Terminal Aerodrome Forecast
Issued by NWS Wilmington, OH

Home | Current Version | Previous Version | Text Only | Print | Product List | Glossary On
Versions: 1 2 3 4 5 6 7 8 9 10 11 12 13 14 15 16 17 18 19 20 21 22 23 24 25 26
000
FTUS41 KILN 090703 AAA
TAFCVG
TAF AMD
KCVG 090703Z 0907/1012 31008KT 5SM -SN BKN019 BKN025 OVC030
     FM091300 27011KT P6SM SCT025
     FM100100 27005KT P6SM SCT025=

USA.gov is the U.S. government's official web portal to all federal, state and local government web resources and services.